createdAt,value
2018-05-07T00:00:58.468Z,11.81
2018-05-07T00:06:53.437Z,11.66
2018-05-07T00:12:48.439Z,12.28
2018-05-07T00:18:43.411Z,11.68
2018-05-07T00:24:38.461Z,12.15
2018-05-07T00:30:33.432Z,12.22
2018-05-07T00:36:28.455Z,12.2
2018-05-07T00:42:23.458Z,12.14
2018-05-07T00:48:18.435Z,11.9
2018-05-07T00:54:13.468Z,12.21
2018-05-07T01:00:08.457Z,12.93
2018-05-07T01:06:03.463Z,13.36
2018-05-07T01:11:58.535Z,12.31
2018-05-07T01:17:53.501Z,12.28
2018-05-07T01:23:48.479Z,14.13
2018-05-07T01:29:43.470Z,13.56
2018-05-07T01:35:38.522Z,12.77
2018-05-07T01:41:33.459Z,13
2018-05-07T01:47:28.444Z,14.6
2018-05-07T01:53:23.428Z,16.68
2018-05-07T01:59:18.492Z,16.62
2018-05-07T02:05:13.540Z,15.69
2018-05-07T02:11:08.449Z,17.29
2018-05-07T02:17:03.450Z,16.76
2018-05-07T02:22:58.477Z,17.47
2018-05-07T02:28:53.449Z,16.59
2018-05-07T02:34:48.481Z,17.89
2018-05-07T02:40:43.482Z,19.43
2018-05-07T02:46:38.484Z,20.5
2018-05-07T02:52:33.497Z,18.51
2018-05-07T02:58:28.498Z,20.13
2018-05-07T03:04:23.471Z,21.85
2018-05-07T03:10:18.498Z,20.8
2018-05-07T03:16:13.478Z,21.31
2018-05-07T03:22:08.538Z,21.18
2018-05-07T03:28:03.475Z,20.74
2018-05-07T03:33:58.536Z,20.59
2018-05-07T03:39:53.542Z,21.1
2018-05-07T03:45:48.556Z,21.62
2018-05-07T03:51:43.493Z,20.81
2018-05-07T03:57:38.540Z,21
2018-05-07T04:03:33.502Z,22.07
2018-05-07T04:09:28.473Z,21.03
2018-05-07T04:15:23.515Z,21.11
2018-05-07T04:21:18.483Z,22.9
2018-05-07T04:27:13.515Z,22.7
2018-05-07T04:33:08.495Z,23.84
2018-05-07T04:39:03.521Z,22.07
2018-05-07T04:44:58.512Z,21.2
2018-05-07T04:50:53.514Z,22.17
2018-05-07T04:56:48.550Z,22.2
2018-05-07T05:02:43.539Z,23.24
2018-05-07T05:08:38.525Z,22.58
2018-05-07T05:14:33.560Z,23.37
2018-05-07T05:20:28.499Z,23.24
2018-05-07T05:26:23.508Z,23.83
2018-05-07T05:32:18.546Z,22.59
2018-05-07T05:38:13.508Z,23.66
2018-05-07T05:44:08.581Z,25.92
2018-05-07T05:50:03.586Z,25.85
2018-05-07T05:55:58.549Z,26.2
2018-05-07T06:01:53.518Z,25.71
2018-05-07T06:07:48.521Z,28.11
2018-05-07T06:13:43.550Z,24.79
2018-05-07T06:19:38.646Z,25.22
2018-05-07T06:25:33.543Z,23.81
2018-05-07T06:31:28.550Z,23.97
2018-05-07T06:37:23.541Z,24.8
2018-05-07T06:43:18.548Z,23.71
2018-05-07T06:49:13.550Z,23.92
2018-05-07T06:55:08.526Z,25.67
2018-05-07T07:01:03.526Z,24.84
2018-05-07T07:06:58.550Z,23.73
2018-05-07T07:12:53.538Z,22.64
2018-05-07T07:18:48.591Z,24.97
2018-05-07T07:24:43.535Z,24.36
2018-05-07T07:30:38.527Z,23.9
2018-05-07T07:36:33.529Z,23.44
2018-05-07T07:42:28.517Z,23.45
2018-05-07T07:48:23.586Z,21.61
2018-05-07T07:54:18.558Z,22.32
2018-05-07T08:00:13.628Z,21.38
2018-05-07T08:06:08.550Z,22.06
2018-05-07T08:12:03.644Z,22.08
2018-05-07T08:17:58.547Z,22.78
2018-05-07T08:23:53.546Z,20.48
2018-05-07T08:29:48.630Z,18.13
2018-05-07T08:35:43.560Z,17.26
2018-05-07T08:41:38.677Z,16.94
2018-05-07T08:47:33.528Z,15.14
2018-05-07T08:53:28.541Z,15.17
2018-05-07T08:59:23.555Z,16.67
2018-05-07T09:05:18.572Z,16.53
2018-05-07T09:11:13.631Z,15.76
2018-05-07T09:17:08.542Z,13.93
2018-05-07T09:23:03.594Z,14.59
2018-05-07T09:28:58.650Z,12.18
2018-05-07T09:34:53.559Z,11.99
2018-05-07T09:40:48.642Z,12.53
2018-05-07T09:46:43.613Z,12.66
2018-05-07T09:52:38.585Z,10.87
2018-05-07T09:58:33.555Z,10.57
2018-05-07T10:04:28.564Z,10.36
2018-05-07T10:10:23.590Z,10.26
2018-05-07T10:16:18.575Z,10.46
2018-05-07T10:22:13.585Z,10.49
2018-05-07T10:28:08.575Z,9.35
2018-05-07T10:34:03.614Z,10.11
2018-05-07T10:39:58.566Z,9.17
2018-05-07T10:45:53.608Z,9.69
2018-05-07T10:51:48.619Z,9.13
2018-05-07T10:57:43.614Z,11.2
2018-05-07T11:03:38.600Z,9.31
2018-05-07T11:09:33.689Z,9.32
2018-05-07T11:15:28.619Z,8.07
2018-05-07T11:21:23.600Z,6.54
2018-05-07T11:27:18.606Z,6.05
2018-05-07T11:33:13.639Z,6.71
2018-05-07T11:39:08.710Z,6.51
2018-05-07T11:45:03.714Z,5.73
2018-05-07T11:50:58.642Z,4.92
2018-05-07T11:56:53.623Z,4.82
2018-05-07T12:02:48.674Z,4.79
2018-05-07T12:08:43.665Z,5.11
2018-05-07T12:14:38.607Z,4.43
2018-05-07T12:20:33.659Z,5.02
2018-05-07T12:26:28.606Z,4.56
2018-05-07T12:32:23.625Z,4.1
2018-05-07T12:38:18.657Z,4.7
2018-05-07T12:44:13.653Z,5.37
2018-05-07T12:50:08.639Z,5.14
2018-05-07T12:56:03.638Z,4.63
2018-05-07T13:01:58.704Z,4.89
2018-05-07T13:07:53.662Z,4.79
2018-05-07T13:13:48.653Z,5.47
2018-05-07T13:19:43.652Z,5.43
2018-05-07T13:25:38.647Z,6.52
2018-05-07T13:31:33.675Z,6.71
2018-05-07T13:37:28.674Z,6.47
2018-05-07T13:43:23.697Z,6.89
2018-05-07T13:49:18.699Z,6.67
2018-05-07T13:55:13.736Z,6.46
2018-05-07T14:01:08.659Z,6.84
2018-05-07T14:07:03.702Z,6.09
2018-05-07T14:12:58.685Z,6.05
2018-05-07T14:18:53.713Z,7.88
2018-05-07T14:24:48.659Z,6.35
2018-05-07T14:30:43.720Z,7.14
2018-05-07T14:36:38.725Z,7.63
2018-05-07T14:42:33.661Z,8.72
2018-05-07T14:48:28.667Z,8.36
2018-05-07T14:54:23.690Z,7.66
2018-05-07T15:00:18.695Z,9.99
2018-05-07T15:06:13.678Z,9.75
2018-05-07T15:12:08.728Z,10.99
2018-05-07T15:18:03.727Z,10.1
2018-05-07T15:23:58.717Z,9.68
2018-05-07T15:29:53.715Z,8.53
2018-05-07T15:35:48.690Z,8.61
2018-05-07T15:41:43.728Z,10.6
2018-05-07T15:47:38.695Z,9.86
2018-05-07T15:53:33.728Z,9.8
2018-05-07T15:59:28.691Z,9.79
2018-05-07T16:05:23.726Z,15.01
2018-05-07T16:11:18.732Z,11.39
2018-05-07T16:17:13.756Z,14.13
2018-05-07T16:23:08.827Z,18.79
2018-05-07T16:29:03.770Z,10.95
2018-05-07T16:34:58.758Z,10.4
2018-05-07T16:40:53.757Z,19.67
2018-05-07T16:46:48.741Z,12.44
2018-05-07T16:52:43.732Z,13.27
2018-05-07T16:58:38.715Z,17.64
2018-05-07T17:04:33.699Z,12.43
2018-05-07T17:10:28.740Z,11.45
2018-05-07T17:16:23.769Z,11.12
2018-05-07T17:22:18.795Z,9.91
2018-05-07T17:28:13.735Z,10.5
2018-05-07T17:34:08.754Z,10.54
2018-05-07T17:40:03.741Z,10.89
2018-05-07T17:45:58.800Z,11.8
2018-05-07T17:51:53.778Z,14.36
2018-05-07T17:57:48.794Z,12.23
2018-05-07T18:03:43.764Z,14.33
2018-05-07T18:09:38.741Z,30.54
2018-05-07T18:15:33.760Z,9.55
2018-05-07T18:21:28.725Z,10.22
2018-05-07T18:27:23.753Z,12.08
2018-05-07T18:33:18.745Z,12.84
2018-05-07T18:39:13.752Z,14.57
2018-05-07T18:45:08.760Z,16.52
2018-05-07T18:51:03.717Z,13.19
2018-05-07T18:56:58.781Z,17.03
2018-05-07T19:02:53.767Z,24.25
2018-05-07T19:08:48.754Z,22.74
2018-05-07T19:14:43.801Z,12.5
2018-05-07T19:20:38.767Z,10.49
2018-05-07T19:26:33.759Z,14.74
2018-05-07T19:32:28.759Z,9.56
2018-05-07T19:38:23.820Z,12.07
2018-05-07T19:44:18.796Z,10.48
2018-05-07T19:50:13.863Z,9.23
2018-05-07T19:56:08.756Z,9.55
2018-05-07T20:02:03.786Z,8.39
2018-05-07T20:07:58.863Z,8.87
2018-05-07T20:13:53.779Z,9.03
2018-05-07T20:19:48.731Z,8.07
2018-05-07T20:25:43.832Z,8.18
2018-05-07T20:31:38.766Z,9.01
2018-05-07T20:37:33.826Z,8.69
2018-05-07T20:43:28.756Z,8.04
2018-05-07T20:49:23.814Z,8.4
2018-05-07T20:55:18.800Z,7.72
2018-05-07T21:01:13.839Z,8.77
2018-05-07T21:07:08.771Z,8.73
2018-05-07T21:13:03.760Z,8.15
2018-05-07T21:18:58.769Z,8.98
2018-05-07T21:24:53.765Z,8.27
2018-05-07T21:30:48.745Z,8.03
2018-05-07T21:36:43.756Z,8.03
2018-05-07T21:42:38.771Z,7.63
2018-05-07T21:48:33.800Z,8.79
2018-05-07T21:54:28.803Z,8.69
2018-05-07T22:00:23.765Z,8.33
2018-05-07T22:06:18.751Z,9.54
2018-05-07T22:12:13.908Z,8.34
2018-05-07T22:18:08.747Z,8.2
2018-05-07T22:24:03.840Z,7.81
2018-05-07T22:29:58.819Z,8.02
2018-05-07T22:35:53.870Z,8.4
2018-05-07T22:41:48.782Z,8.98
2018-05-07T22:47:43.760Z,8.12
2018-05-07T22:53:38.810Z,8.39
2018-05-07T22:59:33.813Z,9.15
2018-05-07T23:05:28.821Z,9.28
2018-05-07T23:11:23.799Z,9.67
2018-05-07T23:17:18.799Z,10
2018-05-07T23:23:13.797Z,9.3
2018-05-07T23:29:08.800Z,8.97
2018-05-07T23:35:03.856Z,9.77
2018-05-07T23:40:58.802Z,9.68
2018-05-07T23:46:53.780Z,9.56
2018-05-07T23:52:48.800Z,9.53
2018-05-07T23:58:43.810Z,9.17
